sensor_id;sensor_type;location;lat;lon;timestamp;pressure;altitude;pressure_sealevel;temperature;humidity
63582;BME280;49727;51.078;17.066;2023-02-28T00:09:59;101569.59;;;-0.18;61.03
63582;BME280;49727;51.078;17.066;2023-02-28T00:25:00;101569.50;;;-0.17;60.73
63582;BME280;49727;51.078;17.066;2023-02-28T00:40:00;101558.34;;;-0.20;60.53
63582;BME280;49727;51.078;17.066;2023-02-28T00:55:01;101555.13;;;-0.27;60.81
63582;BME280;49727;51.078;17.066;2023-02-28T01:10:01;101560.75;;;-0.36;60.27
63582;BME280;49727;51.078;17.066;2023-02-28T01:25:02;101544.81;;;-0.50;60.52
63582;BME280;49727;51.078;17.066;2023-02-28T01:40:03;101546.81;;;-0.78;60.43
63582;BME280;49727;51.078;17.066;2023-02-28T01:55:06;101542.50;;;-0.79;61.61
63582;BME280;49727;51.078;17.066;2023-02-28T02:10:14;101543.34;;;-0.78;61.65
63582;BME280;49727;51.078;17.066;2023-02-28T02:40:32;101535.69;;;-0.83;61.87
63582;BME280;49727;51.078;17.066;2023-02-28T02:55:38;101534.63;;;-0.79;62.15
63582;BME280;49727;51.078;17.066;2023-02-28T03:10:45;101539.50;;;-0.92;62.54
63582;BME280;49727;51.078;17.066;2023-02-28T03:26:11;101545.28;;;-0.83;62.48
63582;BME280;49727;51.078;17.066;2023-02-28T03:41:19;101550.97;;;-0.94;62.63
63582;BME280;49727;51.078;17.066;2023-02-28T03:56:46;101557.78;;;-0.90;62.30
63582;BME280;49727;51.078;17.066;2023-02-28T04:11:52;101567.31;;;-0.89;62.82
63582;BME280;49727;51.078;17.066;2023-02-28T04:26:55;101575.22;;;-0.91;62.30
63582;BME280;49727;51.078;17.066;2023-02-28T04:41:55;101578.13;;;-0.97;62.92
63582;BME280;49727;51.078;17.066;2023-02-28T04:56:56;101585.28;;;-1.02;62.68
63582;BME280;49727;51.078;17.066;2023-02-28T05:11:57;101579.31;;;-1.06;63.24
63582;BME280;49727;51.078;17.066;2023-02-28T05:27:02;101593.88;;;-0.98;62.58
63582;BME280;49727;51.078;17.066;2023-02-28T05:42:03;101608.63;;;-0.97;62.63
63582;BME280;49727;51.078;17.066;2023-02-28T05:57:03;101619.91;;;-0.95;62.26
63582;BME280;49727;51.078;17.066;2023-02-28T06:12:06;101639.19;;;-0.76;62.79
63582;BME280;49727;51.078;17.066;2023-02-28T06:27:07;101644.28;;;-0.50;62.32
63582;BME280;49727;51.078;17.066;2023-02-28T06:42:07;101653.28;;;0.26;62.13
63582;BME280;49727;51.078;17.066;2023-02-28T06:57:08;101662.31;;;0.97;60.83
63582;BME280;49727;51.078;17.066;2023-02-28T07:12:08;101666.16;;;1.98;59.14
63582;BME280;49727;51.078;17.066;2023-02-28T07:27:08;101680.41;;;2.94;56.78
63582;BME280;49727;51.078;17.066;2023-02-28T07:42:09;101668.94;;;4.33;54.54
63582;BME280;49727;51.078;17.066;2023-02-28T07:57:11;101678.56;;;5.19;51.75
63582;BME280;49727;51.078;17.066;2023-02-28T08:12:12;101679.47;;;6.64;49.36
63582;BME280;49727;51.078;17.066;2023-02-28T08:27:13;101661.94;;;7.49;44.46
63582;BME280;49727;51.078;17.066;2023-02-28T08:42:13;101666.78;;;8.94;42.23
63582;BME280;49727;51.078;17.066;2023-02-28T08:57:13;101673.94;;;11.24;37.64
63582;BME280;49727;51.078;17.066;2023-02-28T09:12:14;101670.88;;;21.24;25.56
63582;BME280;49727;51.078;17.066;2023-02-28T09:27:14;101664.84;;;27.66;17.22
63582;BME280;49727;51.078;17.066;2023-02-28T09:42:18;101649.84;;;31.36;13.38
63582;BME280;49727;51.078;17.066;2023-02-28T09:57:29;101647.69;;;33.00;11.97
63582;BME280;49727;51.078;17.066;2023-02-28T10:12:32;101652.28;;;31.89;11.33
63582;BME280;49727;51.078;17.066;2023-02-28T10:27:33;101651.22;;;29.49;12.94
63582;BME280;49727;51.078;17.066;2023-02-28T10:42:34;101646.34;;;32.93;10.39
63582;BME280;49727;51.078;17.066;2023-02-28T10:57:38;101629.09;;;38.17;9.02
63582;BME280;49727;51.078;17.066;2023-02-28T11:12:39;101616.41;;;38.33;7.75
63582;BME280;49727;51.078;17.066;2023-02-28T11:27:46;101603.31;;;38.95;8.19
63582;BME280;49727;51.078;17.066;2023-02-28T11:58:14;101589.75;;;39.41;7.06
63582;BME280;49727;51.078;17.066;2023-02-28T12:28:56;101547.47;;;38.56;7.48
63582;BME280;49727;51.078;17.066;2023-02-28T12:44:03;101534.75;;;36.04;8.03
63582;BME280;49727;51.078;17.066;2023-02-28T13:14:29;101517.59;;;33.66;9.30
63582;BME280;49727;51.078;17.066;2023-02-28T13:29:41;101520.34;;;33.66;8.93
63582;BME280;49727;51.078;17.066;2023-02-28T14:15:30;101486.47;;;28.68;12.18
63582;BME280;49727;51.078;17.066;2023-02-28T14:31:23;101479.16;;;27.19;12.53
63582;BME280;49727;51.078;17.066;2023-02-28T14:46:38;101470.06;;;27.75;12.82
63582;BME280;49727;51.078;17.066;2023-02-28T15:01:39;101465.47;;;26.22;13.18
63582;BME280;49727;51.078;17.066;2023-02-28T15:16:43;101467.06;;;22.72;15.50
63582;BME280;49727;51.078;17.066;2023-02-28T15:31:48;101459.66;;;20.49;16.78
63582;BME280;49727;51.078;17.066;2023-02-28T16:02:17;101450.81;;;12.72;23.50
63582;BME280;49727;51.078;17.066;2023-02-28T16:17:29;101459.88;;;8.45;28.26
63582;BME280;49727;51.078;17.066;2023-02-28T16:32:32;101478.53;;;5.72;32.25
63582;BME280;49727;51.078;17.066;2023-02-28T16:47:34;101484.97;;;4.07;35.64
63582;BME280;49727;51.078;17.066;2023-02-28T17:02:36;101501.34;;;2.80;38.13
63582;BME280;49727;51.078;17.066;2023-02-28T17:17:36;101516.94;;;2.03;39.91
63582;BME280;49727;51.078;17.066;2023-02-28T17:32:37;101515.28;;;1.33;41.53
63582;BME280;49727;51.078;17.066;2023-02-28T17:47:40;101513.22;;;0.88;43.19
63582;BME280;49727;51.078;17.066;2023-02-28T18:02:42;101521.22;;;0.48;44.36
63582;BME280;49727;51.078;17.066;2023-02-28T18:17:42;101533.84;;;0.21;45.41
63582;BME280;49727;51.078;17.066;2023-02-28T18:32:43;101535.13;;;-0.09;46.54
63582;BME280;49727;51.078;17.066;2023-02-28T18:47:43;101538.03;;;-0.36;47.49
63582;BME280;49727;51.078;17.066;2023-02-28T19:02:44;101532.56;;;-0.71;48.69
63582;BME280;49727;51.078;17.066;2023-02-28T19:17:44;101528.28;;;-0.94;49.50
63582;BME280;49727;51.078;17.066;2023-02-28T19:32:46;101549.31;;;-1.19;50.40
63582;BME280;49727;51.078;17.066;2023-02-28T19:47:48;101540.50;;;-1.39;50.66
63582;BME280;49727;51.078;17.066;2023-02-28T20:02:48;101549.03;;;-1.56;52.16
63582;BME280;49727;51.078;17.066;2023-02-28T20:17:49;101545.38;;;-1.75;52.84
63582;BME280;49727;51.078;17.066;2023-02-28T20:32:49;101552.72;;;-1.85;53.44
63582;BME280;49727;51.078;17.066;2023-02-28T20:47:50;101548.75;;;-1.95;53.24
63582;BME280;49727;51.078;17.066;2023-02-28T21:02:50;101548.63;;;-1.92;54.90
63582;BME280;49727;51.078;17.066;2023-02-28T21:17:51;101555.44;;;-2.12;55.09
63582;BME280;49727;51.078;17.066;2023-02-28T21:32:51;101540.63;;;-2.36;55.52
63582;BME280;49727;51.078;17.066;2023-02-28T21:47:52;101538.34;;;-2.46;55.83
63582;BME280;49727;51.078;17.066;2023-02-28T22:02:52;101544.78;;;-2.56;56.99
63582;BME280;49727;51.078;17.066;2023-02-28T22:17:52;101544.34;;;-2.69;56.99
63582;BME280;49727;51.078;17.066;2023-02-28T22:32:53;101548.44;;;-2.87;57.81
63582;BME280;49727;51.078;17.066;2023-02-28T22:47:53;101577.41;;;-2.96;58.72
63582;BME280;49727;51.078;17.066;2023-02-28T23:02:53;101581.19;;;-3.07;58.90
63582;BME280;49727;51.078;17.066;2023-02-28T23:17:54;101577.63;;;-3.32;59.47
63582;BME280;49727;51.078;17.066;2023-02-28T23:32:54;101559.66;;;-3.40;60.23
63582;BME280;49727;51.078;17.066;2023-02-28T23:47:55;101576.53;;;-3.53;60.54
